Time;durP1;ratioP1;P1;durP2;ratioP2;P2;SDS_P1;SDS_P2;PMS_P1;PMS_P2;Temp;Humidity;BMP_temperature;BMP_pressure;BME280_temperature;BME280_humidity;BME280_pressure;Samples;Min_cycle;Max_cycle;Signal;HPM_P1;HPM_P2
2022/03/07 00:00:50;;;;;;;;;;;;;;;-0.37;100.00;102891.19;5055222;28;19923;-69
2022/03/07 00:03:15;;;;;;;;;;;;;;;-0.40;100.00;102888.47;5047294;28;19981;-69
2022/03/07 00:05:41;;;;;;;;;;;;;;;-0.41;100.00;102896.25;5057447;28;20436;-70
2022/03/07 00:08:06;;;;;;;;;;;;;;;-0.45;100.00;102895.25;5051703;28;20007;-70
2022/03/07 00:10:31;;;;;;;;;;;;;;;-0.47;100.00;102891.69;5053716;28;19962;-70
2022/03/07 00:12:56;;;;;;;;;;;;;;;-0.49;100.00;102895.97;5059977;28;19928;-69
2022/03/07 00:15:21;;;;;;;;;;;;;;;-0.51;100.00;102900.25;5059844;28;19925;-70
2022/03/07 00:17:47;;;;;;;;;;;;;;;-0.56;100.00;102899.22;5061039;28;19952;-69
2022/03/07 00:20:12;;;;;;;;;;;;;;;-0.59;100.00;102906.03;5067485;28;19917;-69
2022/03/07 00:22:37;;;;;;;;;;;;;;;-0.59;100.00;102900.81;5078137;28;19920;-69
2022/03/07 00:25:03;;;;;;;;;;;;;;;-0.54;100.00;102913.22;5058150;28;19916;-69
2022/03/07 00:27:28;;;;;;;;;;;;;;;-0.58;100.00;102908.69;5056874;28;19945;-69
2022/03/07 00:29:53;;;;;;;;;;;;;;;-0.61;100.00;102908.59;5056461;28;19924;-69
2022/03/07 00:32:18;;;;;;;;;;;;;;;-0.66;100.00;102915.34;5058154;28;19988;-69
2022/03/07 00:34:43;;;;;;;;;;;;;;;-0.66;100.00;102917.97;5043899;28;19921;-69
2022/03/07 00:37:09;;;;;;;;;;;;;;;-0.72;100.00;102920.38;5054066;28;19917;-69
2022/03/07 00:39:34;;;;;;;;;;;;;;;-0.75;100.00;102925.47;5038234;28;20274;-69
2022/03/07 00:41:59;;;;;;;;;;;;;;;-0.79;100.00;102935.75;5059195;28;20278;-69
2022/03/07 00:44:24;;;;;;;;;;;;;;;-0.80;100.00;102934.84;5057758;28;19923;-70
2022/03/07 00:46:49;;;;;;;;;;;;;;;-0.83;100.00;102934.75;5074323;28;19921;-69
2022/03/07 00:49:15;;;;;;;;;;;;;;;-0.88;100.00;102933.69;5074557;28;20016;-69
2022/03/07 00:51:40;;;;;;;;;;;;;;;-0.89;100.00;102937.13;5058454;28;19916;-69
2022/03/07 00:54:05;;;;;;;;;;;;;;;-0.93;100.00;102939.56;5047884;28;19917;-69
2022/03/07 00:56:30;;;;;;;;;;;;;;;-1.02;100.00;102939.22;5040663;28;19917;-70
2022/03/07 00:58:56;;;;;;;;;;;;;;;-1.08;100.00;102939.88;5053798;28;19916;-69
2022/03/07 01:01:21;;;;;;;;;;;;;;;-1.08;100.00;102945.09;5058940;28;19916;-69
2022/03/07 01:03:46;;;;;;;;;;;;;;;-1.11;100.00;102944.97;5058692;28;19917;-70
2022/03/07 01:06:11;;;;;;;;;;;;;;;-1.13;100.00;102945.72;5070545;28;20309;-69
2022/03/07 01:08:37;;;;;;;;;;;;;;;-1.10;100.00;102956.31;5040870;28;19925;-70
2022/03/07 01:11:02;;;;;;;;;;;;;;;-1.12;100.00;102956.22;5054060;28;19921;-70
2022/03/07 01:13:29;;;;;;;;;;;;;;;-1.28;100.00;102956.50;5061306;28;20011;-69
2022/03/07 01:15:54;;;;;;;;;;;;;;;-1.33;100.00;102965.84;5061213;28;19917;-69
2022/03/07 01:18:19;;;;;;;;;;;;;;;-1.35;100.00;102963.97;5058463;28;19917;-70
2022/03/07 01:20:44;;;;;;;;;;;;;;;-1.38;100.00;102963.88;5058417;28;19917;-69
2022/03/07 01:23:10;;;;;;;;;;;;;;;-1.34;100.00;102960.56;5056919;28;19986;-70
2022/03/07 01:25:35;;;;;;;;;;;;;;;-1.36;100.00;102965.72;5056824;28;19917;-69
2022/03/07 01:28:00;;;;;;;;;;;;;;;-1.38;100.00;102966.47;5066643;28;19976;-69
2022/03/07 01:30:25;;;;;;;;;;;;;;;-1.40;100.00;102963.81;5056958;28;20269;-70
2022/03/07 01:32:54;;;;;;;;;;;;;;;-1.46;100.00;102971.38;5054675;28;20377;-69
2022/03/07 01:35:19;;;;;;;;;;;;;;;-1.48;100.00;102977.38;5060030;28;19921;-70
2022/03/07 01:37:45;;;;;;;;;;;;;;;-1.48;100.00;102977.38;5059588;28;19980;-70
2022/03/07 01:40:10;;;;;;;;;;;;;;;-1.46;100.00;102986.13;5065429;28;19982;-69
2022/03/07 01:42:35;;;;;;;;;;;;;;;-1.45;100.00;102985.31;5054685;28;19917;-69
2022/03/07 01:45:11;;;;;;;;;;;;;;;-1.41;100.00;102982.00;5056977;28;20015;-70
2022/03/07 01:47:38;;;;;;;;;;;;;;;-1.43;100.00;102981.94;5058419;28;19916;-69
2022/03/07 01:50:07;;;;;;;;;;;;;;;-1.44;100.00;102985.38;5053987;28;19927;-69
2022/03/07 01:52:38;;;;;;;;;;;;;;;-1.45;100.00;102983.63;5066832;28;19939;-70
2022/03/07 01:55:03;;;;;;;;;;;;;;;-1.25;100.00;102987.88;5046586;28;19917;-70
2022/03/07 01:57:30;;;;;;;;;;;;;;;-1.29;100.00;102985.97;5056032;28;19974;-70
2022/03/07 01:59:55;;;;;;;;;;;;;;;-1.36;100.00;102993.50;5050887;28;19924;-69
2022/03/07 02:02:20;;;;;;;;;;;;;;;-1.47;100.00;102985.25;5060380;28;20293;-70
2022/03/07 02:04:45;;;;;;;;;;;;;;;-1.53;100.00;102989.31;5056660;28;19956;-70
2022/03/07 02:07:11;;;;;;;;;;;;;;;-1.63;100.00;102982.84;5050043;28;19921;-70
2022/03/07 02:09:36;;;;;;;;;;;;;;;-1.65;100.00;102984.50;5050614;28;20297;-70
2022/03/07 02:12:01;;;;;;;;;;;;;;;-1.68;100.00;102982.69;5048638;28;19952;-69
2022/03/07 02:14:26;;;;;;;;;;;;;;;-1.67;100.00;102986.19;5077418;28;19917;-70
2022/03/07 02:16:52;;;;;;;;;;;;;;;-1.62;100.00;102995.03;5078350;28;19916;-69
2022/03/07 02:19:17;;;;;;;;;;;;;;;-1.60;100.00;102993.41;5079675;28;19943;-69
2022/03/07 02:21:44;;;;;;;;;;;;;;;-1.59;100.00;102979.53;5078382;28;19917;-69
2022/03/07 02:24:09;;;;;;;;;;;;;;;-1.64;100.00;102976.75;5076729;28;19923;-70
2022/03/07 02:26:35;;;;;;;;;;;;;;;-1.64;100.00;102981.09;5076680;28;19916;-69
2022/03/07 02:29:00;;;;;;;;;;;;;;;-1.61;100.00;102979.47;5076861;28;19917;-70
2022/03/07 02:31:25;;;;;;;;;;;;;;;-1.58;100.00;102976.13;5076779;28;20285;-70
2022/03/07 02:33:51;;;;;;;;;;;;;;;-1.53;100.00;102982.41;5077014;28;20007;-70
2022/03/07 02:36:16;;;;;;;;;;;;;;;-1.49;100.00;102980.78;5077442;28;19962;-69
2022/03/07 02:38:41;;;;;;;;;;;;;;;-1.39;100.00;102989.06;5077319;28;19920;-69
2022/03/07 02:41:07;;;;;;;;;;;;;;;-1.31;100.00;102982.44;5077860;28;19967;-70
2022/03/07 02:43:32;;;;;;;;;;;;;;;-1.19;100.00;102982.00;5078543;28;19917;-69
2022/03/07 02:45:58;;;;;;;;;;;;;;;-1.16;100.00;102983.03;5076964;28;19928;-70
2022/03/07 02:48:33;;;;;;;;;;;;;;;-1.12;100.00;102984.03;5061875;28;20026;-70
2022/03/07 02:50:59;;;;;;;;;;;;;;;-1.07;100.00;102983.38;5057498;28;19921;-70
2022/03/07 02:53:32;;;;;;;;;;;;;;;-0.97;100.00;102980.28;5055505;28;20047;-69
2022/03/07 02:55:57;;;;;;;;;;;;;;;-1.02;100.00;102980.94;5057240;28;19916;-70
2022/03/07 02:58:23;;;;;;;;;;;;;;;-1.10;100.00;102978.03;5056682;28;19923;-70
2022/03/07 03:00:49;;;;;;;;;;;;;;;-1.11;100.00;102976.28;5055530;28;19917;-69
2022/03/07 03:03:14;;;;;;;;;;;;;;;-1.08;100.00;102986.81;5055711;28;20336;-70
2022/03/07 03:05:40;;;;;;;;;;;;;;;-1.02;100.00;102980.94;5056222;28;19923;-70
2022/03/07 03:08:05;;;;;;;;;;;;;;;-1.05;100.00;102980.81;5056689;28;19924;-70
2022/03/07 03:10:30;;;;;;;;;;;;;;;-1.07;100.00;102978.16;5055563;28;20004;-70
2022/03/07 03:12:55;;;;;;;;;;;;;;;-1.05;100.00;102981.72;5057159;28;19917;-69
2022/03/07 03:15:20;;;;;;;;;;;;;;;-1.01;100.00;102983.59;5055321;28;19916;-69
2022/03/07 03:17:46;;;;;;;;;;;;;;;-1.03;100.00;102986.97;5056792;28;19994;-70
2022/03/07 03:20:12;;;;;;;;;;;;;;;-1.03;100.00;102982.66;5056901;28;20279;-70
2022/03/07 03:22:38;;;;;;;;;;;;;;;-0.98;100.00;102975.91;5054653;28;20042;-69
2022/03/07 03:25:04;;;;;;;;;;;;;;;-0.98;100.00;102983.75;5036378;28;19960;-69
2022/03/07 03:27:29;;;;;;;;;;;;;;;-0.96;100.00;102982.06;5035228;28;19917;-69
2022/03/07 03:29:54;;;;;;;;;;;;;;;-0.94;100.00;102974.28;5054733;28;20282;-69
2022/03/07 03:32:20;;;;;;;;;;;;;;;-0.89;100.00;102978.88;5072708;23;19917;-69
2022/03/07 03:34:58;;;;;;;;;;;;;;;-0.91;100.00;102980.50;5035550;28;19925;-68
2022/03/07 03:37:26;;;;;;;;;;;;;;;-0.81;100.00;102979.13;5053609;28;19927;-68
2022/03/07 03:39:53;;;;;;;;;;;;;;;-0.86;100.00;102976.38;5052959;28;19948;-71
2022/03/07 03:42:22;;;;;;;;;;;;;;;-0.83;100.00;102976.47;5053762;28;19917;-71
2022/03/07 03:44:48;;;;;;;;;;;;;;;-0.80;100.00;102973.97;5035649;28;20309;-68
2022/03/07 03:47:13;;;;;;;;;;;;;;;-0.78;100.00;102971.44;5053491;28;19925;-68
2022/03/07 03:49:38;;;;;;;;;;;;;;;-0.76;100.00;102969.78;5053475;28;19966;-68
2022/03/07 03:52:04;;;;;;;;;;;;;;;-0.79;100.00;102967.91;5053441;28;19924;-68
2022/03/07 03:54:29;;;;;;;;;;;;;;;-0.82;100.00;102974.75;5035559;28;19924;-68
2022/03/07 03:56:54;;;;;;;;;;;;;;;-0.90;100.00;102970.97;5053943;28;19983;-68
2022/03/07 03:59:19;;;;;;;;;;;;;;;-1.01;100.00;102965.34;5053356;28;20457;-71
2022/03/07 04:01:45;;;;;;;;;;;;;;;-1.14;100.00;102952.69;5053456;28;19959;-68
2022/03/07 04:04:13;;;;;;;;;;;;;;;-1.22;100.00;102958.44;5053292;28;20007;-68
2022/03/07 04:06:39;;;;;;;;;;;;;;;-1.30;100.00;102955.53;5053302;28;20376;-71
2022/03/07 04:09:14;;;;;;;;;;;;;;;-1.38;100.00;102967.38;5035424;28;20036;-68
2022/03/07 04:11:39;;;;;;;;;;;;;;;-1.43;100.00;102976.72;5035397;28;19917;-69
2022/03/07 04:14:05;;;;;;;;;;;;;;;-1.46;100.00;102971.38;5035322;28;19924;-69
2022/03/07 04:16:30;;;;;;;;;;;;;;;-1.51;100.00;102975.53;5053273;28;19924;-69
2022/03/07 04:18:55;;;;;;;;;;;;;;;-1.49;100.00;102975.59;5035338;28;19916;-69
2022/03/07 04:21:20;;;;;;;;;;;;;;;-1.44;100.00;102969.75;5053243;28;19964;-69
2022/03/07 04:23:45;;;;;;;;;;;;;;;-1.39;100.00;102963.00;5053188;28;20011;-69
2022/03/07 04:26:11;;;;;;;;;;;;;;;-1.34;100.00;102966.69;5035217;28;19923;-69
2022/03/07 04:28:36;;;;;;;;;;;;;;;-1.34;100.00;102966.69;5035191;28;19938;-69
2022/03/07 04:31:01;;;;;;;;;;;;;;;-1.35;100.00;102964.88;5035225;28;19924;-69
2022/03/07 04:33:27;;;;;;;;;;;;;;;-1.34;100.00;102971.91;5034806;28;19920;-68
2022/03/07 04:35:52;;;;;;;;;;;;;;;-1.35;100.00;102970.09;5035173;28;19966;-69
2022/03/07 04:38:18;;;;;;;;;;;;;;;-1.32;100.00;102977.16;5035162;28;19916;-69
2022/03/07 04:40:43;;;;;;;;;;;;;;;-1.38;100.00;102966.47;5053170;28;19928;-69
2022/03/07 04:43:08;;;;;;;;;;;;;;;-1.39;100.00;102972.53;5035052;28;19924;-69
2022/03/07 04:45:33;;;;;;;;;;;;;;;-1.43;100.00;102968.91;5035042;28;19924;-69
2022/03/07 04:47:58;;;;;;;;;;;;;;;-1.44;100.00;102968.84;5053002;28;19916;-69
2022/03/07 04:50:24;;;;;;;;;;;;;;;-1.54;100.00;102969.31;5054290;28;19960;-69
2022/03/07 04:52:49;;;;;;;;;;;;;;;-1.57;100.00;102975.28;5038488;28;20003;-69
2022/03/07 04:55:14;;;;;;;;;;;;;;;-1.62;100.00;102966.38;5023256;28;20023;-69
2022/03/07 04:57:39;;;;;;;;;;;;;;;-1.54;100.00;102966.72;5018730;28;19921;-69
2022/03/07 05:00:07;;;;;;;;;;;;;;;-1.58;100.00;102960.50;5009085;28;19925;-69
2022/03/07 05:02:32;;;;;;;;;;;;;;;-1.63;100.00;102967.22;5025896;28;19963;-69
2022/03/07 05:04:57;;;;;;;;;;;;;;;-1.71;100.00;102966.03;5008842;28;20334;-69
2022/03/07 05:07:22;;;;;;;;;;;;;;;-1.80;100.00;102963.06;5021941;28;20027;-69
2022/03/07 05:09:48;;;;;;;;;;;;;;;-1.87;100.00;102963.63;5001971;28;19918;-69
2022/03/07 05:12:13;;;;;;;;;;;;;;;-1.91;100.00;102966.94;5036191;28;19921;-69
2022/03/07 05:14:38;;;;;;;;;;;;;;;-1.97;100.00;102964.09;5010878;28;20020;-69
2022/03/07 05:17:03;;;;;;;;;;;;;;;-2.04;100.00;102964.63;5043675;28;19921;-69
2022/03/07 05:19:28;;;;;;;;;;;;;;;-2.08;100.00;102965.34;5020537;28;19917;-70
2022/03/07 05:21:54;;;;;;;;;;;;;;;-2.12;100.00;102972.13;5003290;28;20298;-69
2022/03/07 05:24:19;;;;;;;;;;;;;;;-2.16;100.00;102969.34;5017651;28;20370;-69
2022/03/07 05:26:44;;;;;;;;;;;;;;;-2.25;100.00;102967.22;5036048;28;20304;-69
2022/03/07 05:29:09;;;;;;;;;;;;;;;-2.22;100.00;102972.56;5001062;28;20393;-69
2022/03/07 05:31:35;;;;;;;;;;;;;;;-2.30;100.00;102973.94;5008694;28;19948;-69
2022/03/07 05:34:00;;;;;;;;;;;;;;;-2.34;100.00;102972.03;5008310;28;20349;-69
2022/03/07 05:36:25;;;;;;;;;;;;;;;-2.38;100.00;102971.84;5021890;28;19917;-77
2022/03/07 05:38:50;;;;;;;;;;;;;;;-2.38;100.00;102971.84;5010461;28;19917;-70
2022/03/07 05:41:16;;;;;;;;;;;;;;;-2.42;100.00;102963.00;5035991;28;20044;-72
2022/03/07 05:43:41;;;;;;;;;;;;;;;-2.43;100.00;102970.75;5017868;28;19980;-69
2022/03/07 05:46:07;;;;;;;;;;;;;;;-2.45;100.00;102977.59;5035563;28;20003;-69
2022/03/07 05:48:32;;;;;;;;;;;;;;;-2.49;100.00;102973.09;5009893;28;19937;-73
2022/03/07 05:50:57;;;;;;;;;;;;;;;-2.49;100.00;102986.97;5028383;28;19917;-72
2022/03/07 05:53:23;;;;;;;;;;;;;;;-2.48;100.00;102988.75;5025674;28;20933;-70
2022/03/07 05:55:49;;;;;;;;;;;;;;;-2.45;100.00;102986.28;5026351;28;19917;-71
2022/03/07 05:58:14;;;;;;;;;;;;;;;-2.47;100.00;102995.72;5009281;28;19917;-70
2022/03/07 06:00:39;;;;;;;;;;;;;;;-2.37;100.00;103002.22;5026208;28;19917;-70
2022/03/07 06:03:05;;;;;;;;;;;;;;;-2.32;100.00;103001.63;5022807;28;19925;-71
2022/03/07 06:05:31;;;;;;;;;;;;;;;-2.27;100.00;103004.41;5025968;28;19918;-71
2022/03/07 06:07:56;;;;;;;;;;;;;;;-2.29;100.00;103001.75;5019211;28;19925;-72
2022/03/07 06:10:21;;;;;;;;;;;;;;;-2.35;100.00;103011.88;5003523;28;19967;-71
2022/03/07 06:12:47;;;;;;;;;;;;;;;-2.34;100.00;103016.28;5012584;28;20375;-72
2022/03/07 06:15:12;;;;;;;;;;;;;;;-2.39;100.00;103016.88;5019572;28;19921;-73
2022/03/07 06:17:37;;;;;;;;;;;;;;;-2.40;100.00;103022.91;5036196;28;19925;-75
2022/03/07 06:20:03;;;;;;;;;;;;;;;-2.42;100.00;103019.34;5034027;28;19928;-73
2022/03/07 06:22:28;;;;;;;;;;;;;;;-2.39;100.00;103020.38;5035281;28;19918;-69
2022/03/07 06:24:55;;;;;;;;;;;;;;;-2.36;100.00;103028.31;5028803;28;20149;-70
2022/03/07 06:27:20;;;;;;;;;;;;;;;-2.32;100.00;103025.03;5015759;28;20362;-72
2022/03/07 06:29:46;;;;;;;;;;;;;;;-2.31;100.00;103020.72;5038362;28;19921;-73
2022/03/07 06:32:11;;;;;;;;;;;;;;;-2.30;100.00;103019.91;5038025;28;19924;-74
2022/03/07 06:34:36;;;;;;;;;;;;;;;-2.27;100.00;103026.09;5036271;28;19921;-73
2022/03/07 06:37:02;;;;;;;;;;;;;;;-2.25;100.00;103013.16;5016781;28;20279;-73
2022/03/07 06:39:27;;;;;;;;;;;;;;;-2.24;100.00;103018.44;5018012;28;19917;-69
2022/03/07 06:41:56;;;;;;;;;;;;;;;-2.23;100.00;103021.94;5016539;28;19971;-71
2022/03/07 06:44:22;;;;;;;;;;;;;;;-2.21;100.00;103028.09;5034344;28;19917;-70
2022/03/07 06:46:47;;;;;;;;;;;;;;;-2.11;100.00;103027.69;5034344;28;19975;-71
2022/03/07 06:49:13;;;;;;;;;;;;;;;-2.04;100.00;103027.13;5016418;28;19921;-71
2022/03/07 06:51:38;;;;;;;;;;;;;;;-1.97;100.00;103018.75;5016422;28;19924;-71
2022/03/07 06:54:04;;;;;;;;;;;;;;;-1.95;100.00;103023.19;5033825;28;19925;-71
2022/03/07 06:56:29;;;;;;;;;;;;;;;-1.95;100.00;103033.59;5016445;28;19924;-71
2022/03/07 06:58:54;;;;;;;;;;;;;;;-1.76;100.00;103023.13;5033973;28;19917;-71
2022/03/07 07:01:19;;;;;;;;;;;;;;;-1.76;100.00;103028.34;5016808;28;19917;-69
2022/03/07 07:03:45;;;;;;;;;;;;;;;-1.68;100.00;103028.66;5044465;28;20293;-69
2022/03/07 07:06:10;;;;;;;;;;;;;;;-1.65;100.00;103026.19;5054359;28;19916;-71
2022/03/07 07:08:35;;;;;;;;;;;;;;;-1.61;100.00;103033.31;5035792;28;20294;-79
2022/03/07 07:11:00;;;;;;;;;;;;;;;-1.59;100.00;103036.84;5017705;28;19917;-71
2022/03/07 07:13:26;;;;;;;;;;;;;;;-1.56;100.00;103037.88;4995980;28;20019;-72
2022/03/07 07:15:55;;;;;;;;;;;;;;;-1.46;100.00;103038.25;5011697;28;20007;-74
2022/03/07 07:18:21;;;;;;;;;;;;;;;-1.37;100.00;103039.50;5017836;28;19996;-71
2022/03/07 07:20:46;;;;;;;;;;;;;;;-1.24;100.00;103036.56;5030982;28;19966;-74
2022/03/07 07:23:11;;;;;;;;;;;;;;;-1.24;100.00;103041.78;5033986;28;20012;-71
2022/03/07 07:25:36;;;;;;;;;;;;;;;-1.15;100.00;103052.56;5015893;28;20374;-71
2022/03/07 07:28:02;;;;;;;;;;;;;;;-1.09;100.00;103042.41;5013516;28;19917;-71
2022/03/07 07:30:27;;;;;;;;;;;;;;;-1.05;100.00;103041.69;5002705;28;19968;-71
2022/03/07 07:32:52;;;;;;;;;;;;;;;-0.94;100.00;103040.38;5021520;28;20421;-72
2022/03/07 07:35:18;;;;;;;;;;;;;;;-0.67;100.00;103048.38;5026845;28;19943;-71
2022/03/07 07:37:43;;;;;;;;;;;;;;;-0.59;100.00;103046.94;5031287;28;19932;-70
2022/03/07 07:40:08;;;;;;;;;;;;;;;-0.65;100.00;103036.28;5026012;28;20398;-78
2022/03/07 07:42:34;;;;;;;;;;;;;;;-0.63;100.00;103032.03;5016589;28;19921;-75
2022/03/07 07:44:59;;;;;;;;;;;;;;;-0.58;100.00;103033.94;5023804;28;19921;-72
2022/03/07 07:47:24;;;;;;;;;;;;;;;-0.50;100.00;103029.91;5017074;28;19925;-72
2022/03/07 07:49:49;;;;;;;;;;;;;;;-0.45;100.00;103025.75;5017580;28;19921;-74
2022/03/07 07:52:14;;;;;;;;;;;;;;;-0.38;100.00;103019.91;5035820;28;20019;-71
2022/03/07 07:54:40;;;;;;;;;;;;;;;-0.30;100.00;103013.25;5019076;28;20425;-70
2022/03/07 07:57:07;;;;;;;;;;;;;;;-0.02;100.00;103010.75;5034640;28;19917;-75
2022/03/07 07:59:32;;;;;;;;;;;;;;;-0.01;100.00;103009.94;5015925;28;19917;-70
2022/03/07 08:01:57;;;;;;;;;;;;;;;-0.01;100.00;102998.59;5015479;28;20408;-71
2022/03/07 08:04:23;;;;;;;;;;;;;;;0.05;100.00;102992.72;5015256;28;19928;-70
2022/03/07 08:06:48;;;;;;;;;;;;;;;0.06;100.00;102984.03;5015459;28;19939;-74
2022/03/07 08:09:13;;;;;;;;;;;;;;;0.13;100.00;102983.41;5002502;28;20350;-70
2022/03/07 08:11:38;;;;;;;;;;;;;;;0.24;100.00;102979.44;5015463;28;20274;-70
2022/03/07 08:14:03;;;;;;;;;;;;;;;0.37;100.00;102974.63;5001942;28;19925;-73
2022/03/07 08:16:29;;;;;;;;;;;;;;;0.39;100.00;102970.34;5030962;28;19918;-69
2022/03/07 08:18:54;;;;;;;;;;;;;;;0.43;100.00;102968.72;4995942;28;20473;-71
2022/03/07 08:21:25;;;;;;;;;;;;;;;0.58;100.00;102959.66;5013033;28;19918;-70
2022/03/07 08:23:50;;;;;;;;;;;;;;;0.60;100.00;102965.78;5014270;28;19960;-70
2022/03/07 08:26:15;;;;;;;;;;;;;;;0.70;100.00;102960.03;5019052;28;19975;-70
2022/03/07 08:28:40;;;;;;;;;;;;;;;0.80;100.00;102955.97;5028994;28;19953;-72
2022/03/07 08:31:06;;;;;;;;;;;;;;;0.86;100.00;102954.44;5025291;28;20024;-71
2022/03/07 08:33:32;;;;;;;;;;;;;;;0.98;100.00;102951.25;5017121;28;19966;-71
2022/03/07 08:35:57;;;;;;;;;;;;;;;1.01;100.00;102954.88;5027615;28;19933;-70
2022/03/07 08:38:22;;;;;;;;;;;;;;;0.99;100.00;102958.28;5018780;28;20409;-77
2022/03/07 08:40:48;;;;;;;;;;;;;;;1.06;100.00;102957.63;5018284;28;19917;-70
2022/03/07 08:43:13;;;;;;;;;;;;;;;1.13;100.00;102959.59;5018182;28;19926;-71
2022/03/07 08:45:38;;;;;;;;;;;;;;;1.25;100.00;102958.22;5026985;28;19932;-71
2022/03/07 08:48:03;;;;;;;;;;;;;;;1.36;100.00;102951.56;5021143;28;19921;-72
2022/03/07 08:50:29;;;;;;;;;;;;;;;1.47;100.00;102943.97;5016500;28;19925;-71
2022/03/07 08:52:54;;;;;;;;;;;;;;;1.41;100.00;102942.09;5017890;28;20337;-77
2022/03/07 08:55:19;;;;;;;;;;;;;;;1.58;100.00;102935.59;5018498;28;19917;-70
2022/03/07 08:57:44;;;;;;;;;;;;;;;1.61;100.00;102937.38;5033442;28;19936;-69
2022/03/07 09:00:11;;;;;;;;;;;;;;;1.78;100.00;102937.84;5015600;28;19960;-70
2022/03/07 09:02:36;;;;;;;;;;;;;;;1.90;100.00;102939.06;5021934;28;20011;-71
2022/03/07 09:05:02;;;;;;;;;;;;;;;1.98;100.00;102927.03;5006889;28;19972;-72
2022/03/07 09:07:28;;;;;;;;;;;;;;;1.95;100.00;102926.97;5021471;28;19921;-72
2022/03/07 09:09:54;;;;;;;;;;;;;;;2.10;100.00;102929.06;5009340;28;20024;-70
2022/03/07 09:12:19;;;;;;;;;;;;;;;2.13;100.00;102924.78;5013222;28;20224;-71
2022/03/07 09:14:45;;;;;;;;;;;;;;;2.19;100.00;102916.22;5012879;28;19924;-71
2022/03/07 09:17:10;;;;;;;;;;;;;;;2.33;100.00;102914.81;5018119;28;20389;-70
2022/03/07 09:19:35;;;;;;;;;;;;;;;2.45;100.00;102917.69;5029246;28;19972;-70
2022/03/07 09:22:00;;;;;;;;;;;;;;;2.47;100.00;102909.03;5023830;28;19924;-69
2022/03/07 09:24:25;;;;;;;;;;;;;;;2.49;100.00;102907.31;5033488;28;19921;-69
2022/03/07 09:26:51;;;;;;;;;;;;;;;2.56;100.00;102908.34;5035212;28;20341;-69
2022/03/07 09:29:16;;;;;;;;;;;;;;;2.65;100.00;102901.56;5018139;28;19967;-71
2022/03/07 09:31:42;;;;;;;;;;;;;;;2.65;100.00;102898.94;5018330;28;19921;-69
2022/03/07 09:34:07;;;;;;;;;;;;;;;2.77;100.00;102888.69;5014385;28;19948;-69
2022/03/07 09:36:32;;;;;;;;;;;;;;;2.90;100.00;102889.84;5029452;28;19971;-69
2022/03/07 09:38:57;;;;;;;;;;;;;;;2.88;100.00;102887.19;5016764;28;19921;-69
2022/03/07 09:41:23;;;;;;;;;;;;;;;3.15;100.00;102885.13;5028919;28;19925;-69
2022/03/07 09:43:48;;;;;;;;;;;;;;;3.01;100.00;102885.69;5009410;28;19921;-69
2022/03/07 09:46:14;;;;;;;;;;;;;;;3.01;100.00;102883.97;5016671;28;20016;-69
2022/03/07 09:48:39;;;;;;;;;;;;;;;3.06;100.00;102873.56;5016070;28;19918;-73
2022/03/07 09:51:05;;;;;;;;;;;;;;;3.12;100.00;102869.31;5026115;28;19939;-68
2022/03/07 09:53:30;;;;;;;;;;;;;;;3.10;100.00;102871.03;5017567;28;20283;-68
2022/03/07 09:55:55;;;;;;;;;;;;;;;3.26;100.00;102859.13;5033576;28;19925;-69
2022/03/07 09:58:20;;;;;;;;;;;;;;;3.28;100.00;102861.78;5025636;28;19923;-75
2022/03/07 10:00:45;;;;;;;;;;;;;;;3.23;100.00;102863.41;5013857;28;19917;-69
2022/03/07 10:03:15;;;;;;;;;;;;;;;3.44;100.00;102861.16;5014472;28;19917;-71
2022/03/07 10:05:45;;;;;;;;;;;;;;;3.33;100.00;102858.34;5024082;28;19975;-69
2022/03/07 10:08:20;;;;;;;;;;;;;;;3.47;100.00;102863.88;5034823;28;20371;-70
2022/03/07 10:10:45;;;;;;;;;;;;;;;3.64;100.00;102857.19;5007511;28;20008;-70
2022/03/07 10:13:11;;;;;;;;;;;;;;;3.64;100.00;102852.78;5022090;28;19952;-69
2022/03/07 10:15:37;;;;;;;;;;;;;;;3.72;100.00;102855.56;5021639;28;19925;-72
2022/03/07 10:18:03;;;;;;;;;;;;;;;3.82;100.00;102846.97;5034417;28;19917;-74
2022/03/07 10:20:28;;;;;;;;;;;;;;;4.05;100.00;102845.63;5024088;28;19932;-70
2022/03/07 10:22:55;;;;;;;;;;;;;;;4.08;100.00;102843.91;5008922;28;19952;-72
2022/03/07 10:25:24;;;;;;;;;;;;;;;4.24;100.00;102845.91;5018922;28;19956;-72
2022/03/07 10:27:50;;;;;;;;;;;;;;;4.40;100.00;102842.63;5024422;28;19922;-69
2022/03/07 10:30:20;;;;;;;;;;;;;;;4.36;100.00;102840.84;5008726;28;20009;-70
2022/03/07 10:32:58;;;;;;;;;;;;;;;4.34;100.00;102832.03;4997719;28;19922;-70
2022/03/07 10:35:25;;;;;;;;;;;;;;;4.47;100.00;102827.81;4982790;28;20367;-70
2022/03/07 10:37:54;;;;;;;;;;;;;;;4.53;100.00;102827.91;4987013;28;20016;-69
2022/03/07 10:40:21;;;;;;;;;;;;;;;4.60;100.00;102822.75;4978372;28;19922;-71
2022/03/07 10:42:47;;;;;;;;;;;;;;;4.74;100.00;102812.41;4976148;28;19922;-71
2022/03/07 10:45:13;;;;;;;;;;;;;;;4.96;100.00;102816.16;4985766;28;19928;-70
2022/03/07 10:47:38;;;;;;;;;;;;;;;5.12;100.00;102824.25;4989484;28;20290;-72
2022/03/07 10:50:04;;;;;;;;;;;;;;;5.32;100.00;102820.09;4980464;28;20446;-69
2022/03/07 10:52:35;;;;;;;;;;;;;;;5.40;100.00;102813.16;4982545;28;19975;-69
2022/03/07 10:55:00;;;;;;;;;;;;;;;5.61;100.00;102807.19;4984300;28;19922;-69
2022/03/07 10:57:25;;;;;;;;;;;;;;;5.79;100.00;102800.31;4987994;28;20405;-69
2022/03/07 10:59:51;;;;;;;;;;;;;;;6.11;100.00;102798.81;4980684;28;20001;-70
2022/03/07 11:02:17;;;;;;;;;;;;;;;6.35;100.00;102800.72;4973529;28;19941;-70
2022/03/07 11:04:48;;;;;;;;;;;;;;;6.74;100.00;102797.41;4973656;28;19922;-70
2022/03/07 11:07:13;;;;;;;;;;;;;;;8.03;100.00;102797.59;5014263;28;20402;-71
2022/03/07 11:09:40;;;;;;;;;;;;;;;10.19;100.00;102789.34;4994576;28;20000;-69
2022/03/07 11:12:09;;;;;;;;;;;;;;;10.99;100.00;102797.25;4979802;28;19917;-70
2022/03/07 11:14:35;;;;;;;;;;;;;;;10.81;100.00;102787.72;4983750;28;19919;-70
2022/03/07 11:17:00;;;;;;;;;;;;;;;12.44;100.00;102789.53;4982596;28;19918;-69
2022/03/07 11:19:28;;;;;;;;;;;;;;;13.08;100.00;102796.19;4978876;28;20331;-72
2022/03/07 11:21:54;;;;;;;;;;;;;;;13.54;100.00;102801.34;4984270;28;19989;-71
2022/03/07 11:24:20;;;;;;;;;;;;;;;13.68;100.00;102792.09;4977214;28;19992;-72
2022/03/07 11:26:47;;;;;;;;;;;;;;;13.72;100.00;102795.59;4981267;28;20363;-70
2022/03/07 11:29:12;;;;;;;;;;;;;;;15.19;100.00;102801.28;4986167;28;19918;-70
2022/03/07 11:31:39;;;;;;;;;;;;;;;14.76;100.00;102796.34;4985050;28;20386;-71
2022/03/07 11:34:09;;;;;;;;;;;;;;;15.31;100.00;102792.88;4982862;28;19981;-70
2022/03/07 11:36:39;;;;;;;;;;;;;;;15.47;100.00;102806.69;4978290;28;19918;-71
2022/03/07 11:39:05;;;;;;;;;;;;;;;16.05;100.00;102801.16;4983176;28;20426;-71
2022/03/07 11:41:32;;;;;;;;;;;;;;;15.55;100.00;102804.63;4984977;28;19918;-71
2022/03/07 11:44:00;;;;;;;;;;;;;;;16.30;100.00;102788.63;4988380;28;19918;-80
2022/03/07 11:46:32;;;;;;;;;;;;;;;16.30;100.00;102796.69;4981358;28;19929;-72
2022/03/07 11:48:58;;;;;;;;;;;;;;;16.46;100.00;102800.63;4984181;28;19925;-70
2022/03/07 11:51:25;;;;;;;;;;;;;;;17.58;100.00;102790.00;4983290;28;19922;-71
2022/03/07 11:53:51;;;;;;;;;;;;;;;17.92;100.00;102793.03;4982994;28;19929;-71
2022/03/07 11:56:20;;;;;;;;;;;;;;;17.12;100.00;102784.66;4992294;28;20339;-71
2022/03/07 11:58:50;;;;;;;;;;;;;;;19.26;100.00;102786.00;4991826;28;19918;-71
2022/03/07 12:01:16;;;;;;;;;;;;;;;19.31;95.25;102784.91;4983477;28;19933;-70
2022/03/07 12:03:41;;;;;;;;;;;;;;;18.43;97.97;102773.78;4978379;28;19918;-71
2022/03/07 12:06:09;;;;;;;;;;;;;;;18.40;96.28;102776.63;4984953;28;19918;-70
2022/03/07 12:08:43;;;;;;;;;;;;;;;19.86;94.11;102765.97;4992911;28;19921;-70
2022/03/07 12:11:10;;;;;;;;;;;;;;;19.88;92.06;102774.88;4977147;28;19925;-70
2022/03/07 12:13:45;;;;;;;;;;;;;;;19.77;87.22;102775.41;4994496;28;19964;-70
2022/03/07 12:16:12;;;;;;;;;;;;;;;19.20;88.09;102767.47;4976982;28;19918;-70
2022/03/07 12:18:37;;;;;;;;;;;;;;;19.96;83.37;102749.25;4994497;28;19918;-69
2022/03/07 12:21:03;;;;;;;;;;;;;;;20.28;79.88;102753.88;4994417;28;19922;-71
2022/03/07 12:23:30;;;;;;;;;;;;;;;21.57;74.65;102739.44;4983112;28;19922;-70